sensor_id;sensor_type;location;lat;lon;timestamp;pressure;altitude;pressure_sealevel;temperature;humidity
6204;BME280;3135;42.602;23.468;2023-02-28T00:00:48;93352.78;;;6.36;100.00
6204;BME280;3135;42.602;23.468;2023-02-28T00:03:13;93353.91;;;6.40;100.00
6204;BME280;3135;42.602;23.468;2023-02-28T00:05:39;93359.00;;;6.47;100.00
6204;BME280;3135;42.602;23.468;2023-02-28T00:08:04;93370.31;;;6.37;100.00
6204;BME280;3135;42.602;23.468;2023-02-28T00:10:30;93371.09;;;6.37;100.00
6204;BME280;3135;42.602;23.468;2023-02-28T00:13:02;93361.84;;;6.40;100.00
6204;BME280;3135;42.602;23.468;2023-02-28T00:15:28;93387.44;;;6.51;100.00
6204;BME280;3135;42.602;23.468;2023-02-28T00:17:54;93368.28;;;6.49;100.00
6204;BME280;3135;42.602;23.468;2023-02-28T00:20:19;93370.28;;;6.59;100.00
6204;BME280;3135;42.602;23.468;2023-02-28T00:22:48;93376.50;;;6.70;100.00
6204;BME280;3135;42.602;23.468;2023-02-28T00:25:16;93380.25;;;6.74;100.00
6204;BME280;3135;42.602;23.468;2023-02-28T00:27:42;93349.84;;;6.59;100.00
6204;BME280;3135;42.602;23.468;2023-02-28T00:30:13;93362.59;;;6.62;100.00
6204;BME280;3135;42.602;23.468;2023-02-28T00:32:39;93371.72;;;6.72;100.00
6204;BME280;3135;42.602;23.468;2023-02-28T00:35:05;93366.31;;;6.61;100.00
6204;BME280;3135;42.602;23.468;2023-02-28T00:37:31;93366.94;;;6.69;100.00
6204;BME280;3135;42.602;23.468;2023-02-28T00:39:57;93377.66;;;6.79;100.00
6204;BME280;3135;42.602;23.468;2023-02-28T00:42:23;93364.75;;;6.65;100.00
6204;BME280;3135;42.602;23.468;2023-02-28T00:44:48;93361.84;;;6.67;100.00
6204;BME280;3135;42.602;23.468;2023-02-28T00:47:14;93360.47;;;6.59;100.00
6204;BME280;3135;42.602;23.468;2023-02-28T00:49:39;93347.63;;;6.51;100.00
6204;BME280;3135;42.602;23.468;2023-02-28T00:52:05;93327.53;;;6.33;100.00
6204;BME280;3135;42.602;23.468;2023-02-28T00:54:30;93332.59;;;5.91;100.00
6204;BME280;3135;42.602;23.468;2023-02-28T00:56:56;93332.19;;;5.99;100.00
6204;BME280;3135;42.602;23.468;2023-02-28T00:59:21;93333.41;;;6.13;100.00
6204;BME280;3135;42.602;23.468;2023-02-28T01:01:47;93334.28;;;5.97;100.00
6204;BME280;3135;42.602;23.468;2023-02-28T01:04:13;93342.38;;;6.07;100.00
6204;BME280;3135;42.602;23.468;2023-02-28T01:06:39;93354.75;;;6.24;100.00
6204;BME280;3135;42.602;23.468;2023-02-28T01:09:06;93354.31;;;6.32;100.00
6204;BME280;3135;42.602;23.468;2023-02-28T01:11:32;93358.84;;;6.09;100.00
6204;BME280;3135;42.602;23.468;2023-02-28T01:13:59;93348.63;;;5.41;100.00
6204;BME280;3135;42.602;23.468;2023-02-28T01:16:25;93357.22;;;5.48;100.00
6204;BME280;3135;42.602;23.468;2023-02-28T01:18:50;93357.09;;;5.59;100.00
6204;BME280;3135;42.602;23.468;2023-02-28T01:21:18;93356.34;;;5.81;100.00
6204;BME280;3135;42.602;23.468;2023-02-28T01:23:45;93352.31;;;5.95;100.00
6204;BME280;3135;42.602;23.468;2023-02-28T01:26:14;93356.19;;;6.09;100.00
6204;BME280;3135;42.602;23.468;2023-02-28T01:28:40;93340.16;;;5.99;100.00
6204;BME280;3135;42.602;23.468;2023-02-28T01:31:06;93344.16;;;6.02;100.00
6204;BME280;3135;42.602;23.468;2023-02-28T01:33:32;93327.38;;;5.96;100.00
6204;BME280;3135;42.602;23.468;2023-02-28T01:36:12;93365.31;;;6.19;100.00
6204;BME280;3135;42.602;23.468;2023-02-28T01:38:38;93348.34;;;6.20;100.00
6204;BME280;3135;42.602;23.468;2023-02-28T01:41:05;93347.06;;;6.22;100.00
6204;BME280;3135;42.602;23.468;2023-02-28T01:43:58;93332.38;;;5.93;100.00
6204;BME280;3135;42.602;23.468;2023-02-28T01:46:24;93326.13;;;5.82;100.00
6204;BME280;3135;42.602;23.468;2023-02-28T01:49:12;93348.72;;;6.06;100.00
6204;BME280;3135;42.602;23.468;2023-02-28T01:51:45;93338.81;;;5.80;100.00
6204;BME280;3135;42.602;23.468;2023-02-28T01:54:27;93349.66;;;5.78;100.00
6204;BME280;3135;42.602;23.468;2023-02-28T01:56:58;93352.31;;;5.78;100.00
6204;BME280;3135;42.602;23.468;2023-02-28T01:59:32;93346.66;;;5.70;100.00
6204;BME280;3135;42.602;23.468;2023-02-28T02:01:59;93346.16;;;5.73;100.00
6204;BME280;3135;42.602;23.468;2023-02-28T02:04:30;93332.03;;;5.67;100.00
6204;BME280;3135;42.602;23.468;2023-02-28T02:06:58;93351.78;;;5.76;100.00
6204;BME280;3135;42.602;23.468;2023-02-28T02:09:23;93370.16;;;5.83;100.00
6204;BME280;3135;42.602;23.468;2023-02-28T02:11:49;93331.66;;;5.58;100.00
6204;BME280;3135;42.602;23.468;2023-02-28T02:14:37;93376.50;;;5.82;100.00
6204;BME280;3135;42.602;23.468;2023-02-28T02:29:16;93346.03;;;5.62;100.00
6204;BME280;3135;42.602;23.468;2023-02-28T02:32:07;93363.38;;;5.53;100.00
6204;BME280;3135;42.602;23.468;2023-02-28T02:35:15;93360.59;;;5.60;100.00
6204;BME280;3135;42.602;23.468;2023-02-28T02:40:22;93365.63;;;5.23;100.00
6204;BME280;3135;42.602;23.468;2023-02-28T02:43:00;93342.81;;;5.05;100.00
6204;BME280;3135;42.602;23.468;2023-02-28T02:45:41;93355.31;;;5.26;100.00
6204;BME280;3135;42.602;23.468;2023-02-28T02:48:13;93345.22;;;5.23;100.00
6204;BME280;3135;42.602;23.468;2023-02-28T02:50:44;93363.97;;;5.22;100.00
6204;BME280;3135;42.602;23.468;2023-02-28T02:53:13;93363.34;;;5.15;100.00
6204;BME280;3135;42.602;23.468;2023-02-28T02:55:43;93360.78;;;5.03;100.00
6204;BME280;3135;42.602;23.468;2023-02-28T02:58:21;93364.41;;;4.80;100.00
6204;BME280;3135;42.602;23.468;2023-02-28T03:00:55;93370.63;;;4.57;100.00
6204;BME280;3135;42.602;23.468;2023-02-28T03:03:23;93387.75;;;4.83;100.00
6204;BME280;3135;42.602;23.468;2023-02-28T03:05:56;93401.94;;;4.94;100.00
6204;BME280;3135;42.602;23.468;2023-02-28T03:08:22;93402.53;;;5.12;100.00
6204;BME280;3135;42.602;23.468;2023-02-28T03:11:00;60778.75;;;-145.89;100.00
6204;BME280;3135;42.602;23.468;2023-02-28T03:24:33;60778.75;;;-145.89;100.00
6204;BME280;3135;42.602;23.468;2023-02-28T03:27:13;60778.75;;;-145.89;100.00
6204;BME280;3135;42.602;23.468;2023-02-28T03:29:51;60778.75;;;-145.89;100.00
6204;BME280;3135;42.602;23.468;2023-02-28T03:37:32;60778.75;;;-145.89;100.00
6204;BME280;3135;42.602;23.468;2023-02-28T03:40:17;60778.75;;;-145.89;100.00
6204;BME280;3135;42.602;23.468;2023-02-28T03:42:49;60778.75;;;-145.89;100.00
6204;BME280;3135;42.602;23.468;2023-02-28T03:45:20;60778.75;;;-145.89;100.00
6204;BME280;3135;42.602;23.468;2023-02-28T03:48:02;60778.75;;;-145.89;100.00
6204;BME280;3135;42.602;23.468;2023-02-28T03:53:12;60778.75;;;-145.89;100.00
6204;BME280;3135;42.602;23.468;2023-02-28T03:55:51;60778.75;;;-145.89;100.00
6204;BME280;3135;42.602;23.468;2023-02-28T04:00:53;60778.75;;;-145.89;100.00
6204;BME280;3135;42.602;23.468;2023-02-28T04:03:20;60778.75;;;-145.89;100.00
6204;BME280;3135;42.602;23.468;2023-02-28T04:05:53;60778.75;;;-145.89;100.00
6204;BME280;3135;42.602;23.468;2023-02-28T04:08:20;60778.75;;;-145.89;100.00
6204;BME280;3135;42.602;23.468;2023-02-28T04:10:50;60778.75;;;-145.89;100.00
6204;BME280;3135;42.602;23.468;2023-02-28T04:13:18;60778.75;;;-145.89;100.00
6204;BME280;3135;42.602;23.468;2023-02-28T04:15:43;60778.75;;;-145.89;100.00
6204;BME280;3135;42.602;23.468;2023-02-28T04:18:09;60778.75;;;-145.89;100.00
6204;BME280;3135;42.602;23.468;2023-02-28T04:20:34;60778.75;;;-145.89;100.00
6204;BME280;3135;42.602;23.468;2023-02-28T04:23:00;60778.75;;;-145.89;100.00
6204;BME280;3135;42.602;23.468;2023-02-28T04:25:25;60778.75;;;-145.89;100.00
6204;BME280;3135;42.602;23.468;2023-02-28T04:27:50;60778.75;;;-145.89;100.00
6204;BME280;3135;42.602;23.468;2023-02-28T04:30:16;60778.75;;;-145.89;100.00
6204;BME280;3135;42.602;23.468;2023-02-28T04:32:41;60778.75;;;-145.89;100.00
6204;BME280;3135;42.602;23.468;2023-02-28T04:35:07;60778.75;;;-145.89;100.00
6204;BME280;3135;42.602;23.468;2023-02-28T04:37:33;60778.75;;;-145.89;100.00
6204;BME280;3135;42.602;23.468;2023-02-28T04:40:01;60778.75;;;-145.89;100.00
6204;BME280;3135;42.602;23.468;2023-02-28T04:42:26;60778.75;;;-145.89;100.00
6204;BME280;3135;42.602;23.468;2023-02-28T04:44:52;60778.75;;;-145.89;100.00
6204;BME280;3135;42.602;23.468;2023-02-28T04:47:17;60778.75;;;-145.89;100.00
6204;BME280;3135;42.602;23.468;2023-02-28T04:49:42;60778.75;;;-145.89;100.00
6204;BME280;3135;42.602;23.468;2023-02-28T04:52:08;60778.75;;;-145.89;100.00
6204;BME280;3135;42.602;23.468;2023-02-28T04:54:35;60778.75;;;-145.89;100.00
6204;BME280;3135;42.602;23.468;2023-02-28T04:57:00;60778.75;;;-145.89;100.00
6204;BME280;3135;42.602;23.468;2023-02-28T04:59:26;60778.75;;;-145.89;100.00
6204;BME280;3135;42.602;23.468;2023-02-28T05:01:52;60778.75;;;-145.89;100.00
6204;BME280;3135;42.602;23.468;2023-02-28T05:04:17;60778.75;;;-145.89;100.00
6204;BME280;3135;42.602;23.468;2023-02-28T05:06:43;60778.75;;;-145.89;100.00
6204;BME280;3135;42.602;23.468;2023-02-28T05:09:08;60778.75;;;-145.89;100.00
6204;BME280;3135;42.602;23.468;2023-02-28T05:11:36;60778.75;;;-145.89;100.00
6204;BME280;3135;42.602;23.468;2023-02-28T05:14:05;60778.75;;;-145.89;100.00
6204;BME280;3135;42.602;23.468;2023-02-28T05:16:31;60778.75;;;-145.89;100.00
6204;BME280;3135;42.602;23.468;2023-02-28T05:18:57;60778.75;;;-145.89;100.00
6204;BME280;3135;42.602;23.468;2023-02-28T05:21:34;60778.75;;;-145.89;100.00
6204;BME280;3135;42.602;23.468;2023-02-28T05:24:11;60778.75;;;-145.89;100.00
6204;BME280;3135;42.602;23.468;2023-02-28T05:26:42;60778.75;;;-145.89;100.00
6204;BME280;3135;42.602;23.468;2023-02-28T05:29:08;60778.75;;;-145.89;100.00
6204;BME280;3135;42.602;23.468;2023-02-28T05:31:34;60778.75;;;-145.89;100.00
6204;BME280;3135;42.602;23.468;2023-02-28T05:34:00;60778.75;;;-145.89;100.00
6204;BME280;3135;42.602;23.468;2023-02-28T05:36:25;60778.75;;;-145.89;100.00
6204;BME280;3135;42.602;23.468;2023-02-28T05:38:51;60778.75;;;-145.89;100.00
6204;BME280;3135;42.602;23.468;2023-02-28T05:41:18;60778.75;;;-145.89;100.00
6204;BME280;3135;42.602;23.468;2023-02-28T05:43:44;60778.75;;;-145.89;100.00
6204;BME280;3135;42.602;23.468;2023-02-28T05:46:11;60778.75;;;-145.89;100.00
6204;BME280;3135;42.602;23.468;2023-02-28T05:48:38;60778.75;;;-145.89;100.00
6204;BME280;3135;42.602;23.468;2023-02-28T05:51:04;60778.75;;;-145.89;100.00
6204;BME280;3135;42.602;23.468;2023-02-28T05:53:30;60778.75;;;-145.89;100.00
6204;BME280;3135;42.602;23.468;2023-02-28T05:55:56;60778.75;;;-145.89;100.00
6204;BME280;3135;42.602;23.468;2023-02-28T05:58:22;60778.75;;;-145.89;100.00
6204;BME280;3135;42.602;23.468;2023-02-28T06:00:48;60778.75;;;-145.89;100.00
6204;BME280;3135;42.602;23.468;2023-02-28T06:03:14;60778.75;;;-145.89;100.00
6204;BME280;3135;42.602;23.468;2023-02-28T06:05:39;60778.75;;;-145.89;100.00
6204;BME280;3135;42.602;23.468;2023-02-28T06:08:05;60778.75;;;-145.89;100.00
6204;BME280;3135;42.602;23.468;2023-02-28T06:10:34;60778.75;;;-145.89;100.00
6204;BME280;3135;42.602;23.468;2023-02-28T06:13:01;60778.75;;;-145.89;100.00
6204;BME280;3135;42.602;23.468;2023-02-28T06:15:28;60778.75;;;-145.89;100.00
6204;BME280;3135;42.602;23.468;2023-02-28T06:17:53;60778.75;;;-145.89;100.00
6204;BME280;3135;42.602;23.468;2023-02-28T06:20:19;60778.75;;;-145.89;100.00
6204;BME280;3135;42.602;23.468;2023-02-28T06:22:44;60778.75;;;-145.89;100.00
6204;BME280;3135;42.602;23.468;2023-02-28T06:25:10;60778.75;;;-145.89;100.00
6204;BME280;3135;42.602;23.468;2023-02-28T06:27:36;60778.75;;;-145.89;100.00
6204;BME280;3135;42.602;23.468;2023-02-28T06:30:01;60778.75;;;-145.89;100.00
6204;BME280;3135;42.602;23.468;2023-02-28T06:32:27;60778.75;;;-145.89;100.00
6204;BME280;3135;42.602;23.468;2023-02-28T06:34:52;60778.75;;;-145.89;100.00
6204;BME280;3135;42.602;23.468;2023-02-28T06:37:18;60778.75;;;-145.89;100.00
6204;BME280;3135;42.602;23.468;2023-02-28T06:39:44;60778.75;;;-145.89;100.00
6204;BME280;3135;42.602;23.468;2023-02-28T06:42:09;60778.75;;;-145.89;100.00
6204;BME280;3135;42.602;23.468;2023-02-28T06:44:35;60778.75;;;-145.89;100.00
6204;BME280;3135;42.602;23.468;2023-02-28T06:47:05;60778.75;;;-145.89;100.00
6204;BME280;3135;42.602;23.468;2023-02-28T06:49:32;60778.75;;;-145.89;100.00
6204;BME280;3135;42.602;23.468;2023-02-28T06:51:58;60778.75;;;-145.89;100.00
6204;BME280;3135;42.602;23.468;2023-02-28T06:54:23;60778.75;;;-145.89;100.00
6204;BME280;3135;42.602;23.468;2023-02-28T06:56:49;60778.75;;;-145.89;100.00
6204;BME280;3135;42.602;23.468;2023-02-28T06:59:15;60778.75;;;-145.89;100.00
6204;BME280;3135;42.602;23.468;2023-02-28T07:01:41;60778.75;;;-145.89;100.00
6204;BME280;3135;42.602;23.468;2023-02-28T07:04:07;60778.75;;;-145.89;100.00
6204;BME280;3135;42.602;23.468;2023-02-28T07:06:33;60778.75;;;-145.89;100.00
6204;BME280;3135;42.602;23.468;2023-02-28T07:08:58;60778.75;;;-145.89;100.00
6204;BME280;3135;42.602;23.468;2023-02-28T07:11:26;60778.75;;;-145.89;100.00
6204;BME280;3135;42.602;23.468;2023-02-28T07:13:53;60778.75;;;-145.89;100.00
6204;BME280;3135;42.602;23.468;2023-02-28T07:16:18;60778.75;;;-145.89;100.00
6204;BME280;3135;42.602;23.468;2023-02-28T07:18:44;60778.75;;;-145.89;100.00
6204;BME280;3135;42.602;23.468;2023-02-28T07:21:10;60778.75;;;-145.89;100.00
6204;BME280;3135;42.602;23.468;2023-02-28T07:23:36;60778.75;;;-145.89;100.00
6204;BME280;3135;42.602;23.468;2023-02-28T07:26:03;60778.75;;;-145.89;100.00
6204;BME280;3135;42.602;23.468;2023-02-28T07:28:29;60778.75;;;-145.89;100.00
6204;BME280;3135;42.602;23.468;2023-02-28T07:30:55;60778.75;;;-145.89;100.00
6204;BME280;3135;42.602;23.468;2023-02-28T07:33:20;60778.75;;;-145.89;100.00
6204;BME280;3135;42.602;23.468;2023-02-28T07:35:45;60778.75;;;-145.89;100.00
6204;BME280;3135;42.602;23.468;2023-02-28T07:38:11;60778.75;;;-145.89;100.00
6204;BME280;3135;42.602;23.468;2023-02-28T07:40:39;60778.75;;;-145.89;100.00
6204;BME280;3135;42.602;23.468;2023-02-28T07:43:04;60778.75;;;-145.89;100.00
6204;BME280;3135;42.602;23.468;2023-02-28T07:45:30;60778.75;;;-145.89;100.00
6204;BME280;3135;42.602;23.468;2023-02-28T07:47:57;60778.75;;;-145.89;100.00
6204;BME280;3135;42.602;23.468;2023-02-28T07:50:22;60778.75;;;-145.89;100.00
6204;BME280;3135;42.602;23.468;2023-02-28T07:52:48;60778.75;;;-145.89;100.00
6204;BME280;3135;42.602;23.468;2023-02-28T07:55:13;60778.75;;;-145.89;100.00
6204;BME280;3135;42.602;23.468;2023-02-28T07:57:40;60778.75;;;-145.89;100.00
6204;BME280;3135;42.602;23.468;2023-02-28T08:00:08;60778.75;;;-145.89;100.00
6204;BME280;3135;42.602;23.468;2023-02-28T08:02:36;60778.75;;;-145.89;100.00
6204;BME280;3135;42.602;23.468;2023-02-28T08:05:02;60778.75;;;-145.89;100.00
6204;BME280;3135;42.602;23.468;2023-02-28T08:07:27;60778.75;;;-145.89;100.00
6204;BME280;3135;42.602;23.468;2023-02-28T08:09:53;60778.75;;;-145.89;100.00
6204;BME280;3135;42.602;23.468;2023-02-28T08:12:18;60778.75;;;-145.89;100.00
6204;BME280;3135;42.602;23.468;2023-02-28T08:14:44;60778.75;;;-145.89;100.00
6204;BME280;3135;42.602;23.468;2023-02-28T08:17:10;60778.75;;;-145.89;100.00
6204;BME280;3135;42.602;23.468;2023-02-28T08:19:36;60778.75;;;-145.89;100.00
6204;BME280;3135;42.602;23.468;2023-02-28T08:22:01;60778.75;;;-145.89;100.00
6204;BME280;3135;42.602;23.468;2023-02-28T08:24:27;60778.75;;;-145.89;100.00
6204;BME280;3135;42.602;23.468;2023-02-28T08:26:52;60778.75;;;-145.89;100.00
6204;BME280;3135;42.602;23.468;2023-02-28T08:29:18;60778.75;;;-145.89;100.00
6204;BME280;3135;42.602;23.468;2023-02-28T08:31:43;60778.75;;;-145.89;100.00
6204;BME280;3135;42.602;23.468;2023-02-28T08:34:10;60778.75;;;-145.89;100.00
6204;BME280;3135;42.602;23.468;2023-02-28T08:36:37;60778.75;;;-145.89;100.00
6204;BME280;3135;42.602;23.468;2023-02-28T08:39:03;60778.75;;;-145.89;100.00
6204;BME280;3135;42.602;23.468;2023-02-28T08:41:29;60778.75;;;-145.89;100.00
6204;BME280;3135;42.602;23.468;2023-02-28T08:43:54;60778.75;;;-145.89;100.00
6204;BME280;3135;42.602;23.468;2023-02-28T08:46:20;60778.75;;;-145.89;100.00
6204;BME280;3135;42.602;23.468;2023-02-28T08:48:46;60778.75;;;-145.89;100.00
6204;BME280;3135;42.602;23.468;2023-02-28T08:51:14;60778.75;;;-145.89;100.00
6204;BME280;3135;42.602;23.468;2023-02-28T08:53:44;60778.75;;;-145.89;100.00
6204;BME280;3135;42.602;23.468;2023-02-28T08:56:15;60778.75;;;-145.89;100.00
6204;BME280;3135;42.602;23.468;2023-02-28T08:58:42;60778.75;;;-145.89;100.00
6204;BME280;3135;42.602;23.468;2023-02-28T09:01:12;60778.75;;;-145.89;100.00
6204;BME280;3135;42.602;23.468;2023-02-28T09:03:38;60778.75;;;-145.89;100.00
6204;BME280;3135;42.602;23.468;2023-02-28T09:06:04;60778.75;;;-145.89;100.00
6204;BME280;3135;42.602;23.468;2023-02-28T09:08:30;60778.75;;;-145.89;100.00
6204;BME280;3135;42.602;23.468;2023-02-28T09:10:57;60778.75;;;-145.89;100.00
6204;BME280;3135;42.602;23.468;2023-02-28T09:13:24;60778.75;;;-145.89;100.00
6204;BME280;3135;42.602;23.468;2023-02-28T09:15:50;60778.75;;;-145.89;100.00
6204;BME280;3135;42.602;23.468;2023-02-28T09:18:16;60778.75;;;-145.89;100.00
6204;BME280;3135;42.602;23.468;2023-02-28T09:20:42;60778.75;;;-145.89;100.00
6204;BME280;3135;42.602;23.468;2023-02-28T09:23:10;60778.75;;;-145.89;100.00
6204;BME280;3135;42.602;23.468;2023-02-28T09:25:36;60778.75;;;-145.89;100.00
6204;BME280;3135;42.602;23.468;2023-02-28T09:28:03;60778.75;;;-145.89;100.00
6204;BME280;3135;42.602;23.468;2023-02-28T09:30:29;60778.75;;;-145.89;100.00
6204;BME280;3135;42.602;23.468;2023-02-28T09:32:55;60778.75;;;-145.89;100.00
6204;BME280;3135;42.602;23.468;2023-02-28T09:35:24;60778.75;;;-145.89;100.00
6204;BME280;3135;42.602;23.468;2023-02-28T09:37:50;60778.75;;;-145.89;100.00
6204;BME280;3135;42.602;23.468;2023-02-28T09:40:22;60778.75;;;-145.89;100.00
6204;BME280;3135;42.602;23.468;2023-02-28T09:42:51;60778.75;;;-145.89;100.00
6204;BME280;3135;42.602;23.468;2023-02-28T09:45:28;60778.75;;;-145.89;100.00
6204;BME280;3135;42.602;23.468;2023-02-28T09:47:59;60778.75;;;-145.89;100.00
6204;BME280;3135;42.602;23.468;2023-02-28T09:53:06;60778.75;;;-145.89;100.00
6204;BME280;3135;42.602;23.468;2023-02-28T09:55:50;60778.75;;;-145.89;100.00
6204;BME280;3135;42.602;23.468;2023-02-28T09:58:26;60778.75;;;-145.89;100.00
6204;BME280;3135;42.602;23.468;2023-02-28T10:01:06;60778.75;;;-145.89;100.00
6204;BME280;3135;42.602;23.468;2023-02-28T10:03:39;60778.75;;;-145.89;100.00
6204;BME280;3135;42.602;23.468;2023-02-28T10:08:50;60778.75;;;-145.89;100.00
6204;BME280;3135;42.602;23.468;2023-02-28T10:11:17;60778.75;;;-145.89;100.00
6204;BME280;3135;42.602;23.468;2023-02-28T10:13:50;60778.75;;;-145.89;100.00
6204;BME280;3135;42.602;23.468;2023-02-28T10:16:24;60778.75;;;-145.89;100.00
6204;BME280;3135;42.602;23.468;2023-02-28T10:18:54;60778.75;;;-145.89;100.00
6204;BME280;3135;42.602;23.468;2023-02-28T10:21:38;60778.75;;;-145.89;100.00
6204;BME280;3135;42.602;23.468;2023-02-28T10:26:43;60778.75;;;-145.89;100.00
6204;BME280;3135;42.602;23.468;2023-02-28T10:29:10;60778.75;;;-145.89;100.00
6204;BME280;3135;42.602;23.468;2023-02-28T10:31:36;60778.75;;;-145.89;100.00
6204;BME280;3135;42.602;23.468;2023-02-28T10:34:01;60778.75;;;-145.89;100.00
6204;BME280;3135;42.602;23.468;2023-02-28T10:36:28;60778.75;;;-145.89;100.00
6204;BME280;3135;42.602;23.468;2023-02-28T10:38:54;60778.75;;;-145.89;100.00
6204;BME280;3135;42.602;23.468;2023-02-28T10:41:29;60778.75;;;-145.89;100.00
6204;BME280;3135;42.602;23.468;2023-02-28T10:44:22;60778.75;;;-145.89;100.00
6204;BME280;3135;42.602;23.468;2023-02-28T10:46:48;60778.75;;;-145.89;100.00
6204;BME280;3135;42.602;23.468;2023-02-28T10:51:51;60778.75;;;-145.89;100.00
6204;BME280;3135;42.602;23.468;2023-02-28T10:54:36;60778.75;;;-145.89;100.00
6204;BME280;3135;42.602;23.468;2023-02-28T10:57:12;60778.75;;;-145.89;100.00
6204;BME280;3135;42.602;23.468;2023-02-28T10:59:39;60778.75;;;-145.89;100.00
6204;BME280;3135;42.602;23.468;2023-02-28T11:02:43;60778.75;;;-145.89;100.00
6204;BME280;3135;42.602;23.468;2023-02-28T11:07:54;60778.75;;;-145.89;100.00
6204;BME280;3135;42.602;23.468;2023-02-28T11:10:24;60778.75;;;-145.89;100.00
6204;BME280;3135;42.602;23.468;2023-02-28T11:12:55;60778.75;;;-145.89;100.00
6204;BME280;3135;42.602;23.468;2023-02-28T11:15:27;60778.75;;;-145.89;100.00
6204;BME280;3135;42.602;23.468;2023-02-28T11:18:05;60778.75;;;-145.89;100.00
6204;BME280;3135;42.602;23.468;2023-02-28T11:20:33;60778.75;;;-145.89;100.00
6204;BME280;3135;42.602;23.468;2023-02-28T11:23:01;60778.75;;;-145.89;100.00
6204;BME280;3135;42.602;23.468;2023-02-28T11:25:36;60778.75;;;-145.89;100.00
6204;BME280;3135;42.602;23.468;2023-02-28T11:28:24;60778.75;;;-145.89;100.00
6204;BME280;3135;42.602;23.468;2023-02-28T11:31:21;60778.75;;;-145.89;100.00
6204;BME280;3135;42.602;23.468;2023-02-28T11:33:52;60778.75;;;-145.89;100.00
6204;BME280;3135;42.602;23.468;2023-02-28T11:38:48;60778.75;;;-145.89;100.00
6204;BME280;3135;42.602;23.468;2023-02-28T11:44:18;60778.75;;;-145.89;100.00
6204;BME280;3135;42.602;23.468;2023-02-28T11:46:47;60778.75;;;-145.89;100.00
6204;BME280;3135;42.602;23.468;2023-02-28T11:49:20;60778.75;;;-145.89;100.00
6204;BME280;3135;42.602;23.468;2023-02-28T12:00:25;60778.75;;;-145.89;100.00
6204;BME280;3135;42.602;23.468;2023-02-28T12:05:45;60778.75;;;-145.89;100.00
6204;BME280;3135;42.602;23.468;2023-02-28T12:08:23;60778.75;;;-145.89;100.00
6204;BME280;3135;42.602;23.468;2023-02-28T12:11:01;60778.75;;;-145.89;100.00
6204;BME280;3135;42.602;23.468;2023-02-28T12:26:54;60778.75;;;-145.89;100.00
6204;BME280;3135;42.602;23.468;2023-02-28T12:29:29;60778.75;;;-145.89;100.00
6204;BME280;3135;42.602;23.468;2023-02-28T12:32:06;60778.75;;;-145.89;100.00
6204;BME280;3135;42.602;23.468;2023-02-28T12:34:36;60778.75;;;-145.89;100.00
6204;BME280;3135;42.602;23.468;2023-02-28T12:37:07;60778.75;;;-145.89;100.00
6204;BME280;3135;42.602;23.468;2023-02-28T12:39:38;60778.75;;;-145.89;100.00
6204;BME280;3135;42.602;23.468;2023-02-28T12:42:10;60778.75;;;-145.89;100.00
6204;BME280;3135;42.602;23.468;2023-02-28T12:44:55;60778.75;;;-145.89;100.00
6204;BME280;3135;42.602;23.468;2023-02-28T12:47:23;60778.75;;;-145.89;100.00
6204;BME280;3135;42.602;23.468;2023-02-28T12:49:53;60778.75;;;-145.89;100.00
6204;BME280;3135;42.602;23.468;2023-02-28T12:52:52;60778.75;;;-145.89;100.00
6204;BME280;3135;42.602;23.468;2023-02-28T13:09:16;60778.75;;;-145.89;100.00
6204;BME280;3135;42.602;23.468;2023-02-28T13:11:47;60778.75;;;-145.89;100.00
6204;BME280;3135;42.602;23.468;2023-02-28T13:14:28;60778.75;;;-145.89;100.00
6204;BME280;3135;42.602;23.468;2023-02-28T13:19:40;60778.75;;;-145.89;100.00
6204;BME280;3135;42.602;23.468;2023-02-28T13:22:17;60778.75;;;-145.89;100.00
6204;BME280;3135;42.602;23.468;2023-02-28T13:24:51;60778.75;;;-145.89;100.00
6204;BME280;3135;42.602;23.468;2023-02-28T13:27:34;60778.75;;;-145.89;100.00
6204;BME280;3135;42.602;23.468;2023-02-28T13:30:01;60778.75;;;-145.89;100.00
6204;BME280;3135;42.602;23.468;2023-02-28T13:32:46;60778.75;;;-145.89;100.00
6204;BME280;3135;42.602;23.468;2023-02-28T13:35:14;60778.75;;;-145.89;100.00
6204;BME280;3135;42.602;23.468;2023-02-28T13:37:44;60778.75;;;-145.89;100.00
6204;BME280;3135;42.602;23.468;2023-02-28T13:47:39;60778.75;;;-145.89;100.00
6204;BME280;3135;42.602;23.468;2023-02-28T13:50:24;60778.75;;;-145.89;100.00
6204;BME280;3135;42.602;23.468;2023-02-28T14:06:35;60778.75;;;-145.89;100.00
6204;BME280;3135;42.602;23.468;2023-02-28T14:11:39;60778.75;;;-145.89;100.00
6204;BME280;3135;42.602;23.468;2023-02-28T14:14:08;60778.75;;;-145.89;100.00
6204;BME280;3135;42.602;23.468;2023-02-28T14:16:45;60778.75;;;-145.89;100.00
6204;BME280;3135;42.602;23.468;2023-02-28T14:19:14;60778.75;;;-145.89;100.00
6204;BME280;3135;42.602;23.468;2023-02-28T14:27:53;60778.75;;;-145.89;100.00
6204;BME280;3135;42.602;23.468;2023-02-28T14:38:31;60778.75;;;-145.89;100.00
6204;BME280;3135;42.602;23.468;2023-02-28T14:40:59;60778.75;;;-145.89;100.00
6204;BME280;3135;42.602;23.468;2023-02-28T14:43:27;60778.75;;;-145.89;100.00
6204;BME280;3135;42.602;23.468;2023-02-28T14:46:04;60778.75;;;-145.89;100.00
6204;BME280;3135;42.602;23.468;2023-02-28T14:48:32;60778.75;;;-145.89;100.00
6204;BME280;3135;42.602;23.468;2023-02-28T14:51:00;60778.75;;;-145.89;100.00
6204;BME280;3135;42.602;23.468;2023-02-28T14:53:28;60778.75;;;-145.89;100.00
6204;BME280;3135;42.602;23.468;2023-02-28T14:55:55;60778.75;;;-145.89;100.00
6204;BME280;3135;42.602;23.468;2023-02-28T14:58:32;60778.75;;;-145.89;100.00
6204;BME280;3135;42.602;23.468;2023-02-28T15:01:01;60778.75;;;-145.89;100.00
6204;BME280;3135;42.602;23.468;2023-02-28T15:03:34;60778.75;;;-145.89;100.00
6204;BME280;3135;42.602;23.468;2023-02-28T15:06:05;60778.75;;;-145.89;100.00
6204;BME280;3135;42.602;23.468;2023-02-28T15:08:32;60778.75;;;-145.89;100.00
6204;BME280;3135;42.602;23.468;2023-02-28T15:11:11;60778.75;;;-145.89;100.00
6204;BME280;3135;42.602;23.468;2023-02-28T15:13:46;60778.75;;;-145.89;100.00